Zhangwu, China
Current Conditions -  °F | °C
As of 6:30 AM on Thursday 23 Oct 2014 (Local Time) from ZYTX Reporting Station
Broken Clouds Broken Clouds  
Wind Chill: 54°   Ceiling: 4000
Heat Index: 54°   Visibility: 6mi
Dew Point: 30°   Wind: 9mph
Humidity: 41%   Direction: 160°SSE
Pressure: 30"   Gusts: NA
Location:  42.42°N, 122.53°E
Report Text: ZYTX 222230Z 16004MPS 130V190 9999 BKN040 12/M01 Q1016 NOSIG
Loading
Personal Weather Stations






























Interactive Weather Map
Tropical Storm Tracking
New forecast layout! Learn more

10-Day Weather Forecast

Advertisements
Track Severe Weather on mobile